Lambert St Louis International Airport
KSTL : rendu visible

Aérodrome :











RETROUVEZ-NOUS SUR...

 
LOGIN :

S'inscrire | Disclaimer

   EN    FR    IT 

 









Légende :    VFR   VFR Marginal   IFR   IFR Intensif   IFR Très Intensif
Visi : 
Plafond : 
>= 8 km
>= 3000ft
5 à 8 km
1000 à 3000 ft
1500m à 5 km
500 à 1000 ft
800 à 1500m
200 à 500 ft
< 800m
< 200 ft
Symboles :   Orages  Brouillard  Fortes neiges  Fortes précipitations  Vent > 20 kt






- Altitude de l'aérodrome : 618 ft
- Code IATA : STL


KSTL - Lambert St Louis International

DERNIER METAR :
  • 200251Z 33008KT 9SM -SN OVC019 M09/M13 A3057 RMK AO2 SNB49 SLP372 P0000 60000 T10891133 53007 $

METARs EXPIRÉS :
  • 200234Z 33009KT 10SM BKN017 M09/M13 A3057 RMK AO2 T10941133 $
  • 200151Z 32011KT 10SM FEW023 M09/M14 A3056 RMK AO2 SLP367 T10891139 $
  • 200133Z 33010KT 10SM FEW023 M08/M14 A3055 RMK AO2 T10831139 $
  • 200051Z 32011KT 10SM BKN023 M08/M13 A3055 RMK AO2 SLP364 T10781133 $

TAF KSTL
Valide du 20 à 03h jusqu'au 21 à 06h UTC


200257Z 2003/2106 33009KT P6SM OVC020
TEMPO 2003/2005 -SN OVC018
FM202100 32006KT P6SM OVC035



MET'MAP, la Météo Aéronautique d'un coup d'oeil ! - Copyright ORBIFLY Décembre 2007 - Disclaimer

ORBIFLY MET'MAP TEAM :

Programmation & Développement : Alexandra Zaïnal
Sur une idée originale de : Baudouin d'Aumeries
Assistance à la programmation : Marc-Olivier Méhu
Soutien technique & logistique : Manuel Goepfert

Contact : metmap@orbifly.com




SOURCES & CREDITS :

   NOAA       Earth
Advisory